sensor_id;sensor_type;location;lat;lon;timestamp;P1;durP1;ratioP1;P2;durP2;ratioP2
75793;SDS011;64418;47.536;19.074;2024-01-30T00:01:08;32.93;;;15.37;;
75793;SDS011;64418;47.536;19.074;2024-01-30T00:03:33;34.53;;;16.42;;
75793;SDS011;64418;47.536;19.074;2024-01-30T00:05:59;41.97;;;17.77;;
75793;SDS011;64418;47.536;19.074;2024-01-30T00:08:25;32.03;;;16.40;;
75793;SDS011;64418;47.536;19.074;2024-01-30T00:10:54;38.17;;;16.33;;
75793;SDS011;64418;47.536;19.074;2024-01-30T00:13:20;36.15;;;16.67;;
75793;SDS011;64418;47.536;19.074;2024-01-30T00:15:45;38.33;;;17.70;;
75793;SDS011;64418;47.536;19.074;2024-01-30T00:18:13;36.22;;;16.98;;
75793;SDS011;64418;47.536;19.074;2024-01-30T00:20:39;33.13;;;15.68;;
75793;SDS011;64418;47.536;19.074;2024-01-30T00:23:05;38.77;;;17.00;;
75793;SDS011;64418;47.536;19.074;2024-01-30T00:25:31;38.13;;;17.83;;
75793;SDS011;64418;47.536;19.074;2024-01-30T00:27:56;36.53;;;17.17;;
75793;SDS011;64418;47.536;19.074;2024-01-30T00:30:22;35.08;;;16.85;;
75793;SDS011;64418;47.536;19.074;2024-01-30T00:32:49;37.60;;;17.43;;
75793;SDS011;64418;47.536;19.074;2024-01-30T00:35:20;34.90;;;16.60;;
75793;SDS011;64418;47.536;19.074;2024-01-30T00:37:46;37.38;;;17.15;;
75793;SDS011;64418;47.536;19.074;2024-01-30T00:40:12;41.83;;;16.87;;
75793;SDS011;64418;47.536;19.074;2024-01-30T00:42:38;32.80;;;16.17;;
75793;SDS011;64418;47.536;19.074;2024-01-30T00:45:04;35.27;;;16.47;;
75793;SDS011;64418;47.536;19.074;2024-01-30T00:47:30;36.72;;;16.90;;
75793;SDS011;64418;47.536;19.074;2024-01-30T00:49:55;41.50;;;18.00;;
75793;SDS011;64418;47.536;19.074;2024-01-30T00:52:23;34.78;;;16.15;;
75793;SDS011;64418;47.536;19.074;2024-01-30T00:54:48;41.75;;;17.65;;
75793;SDS011;64418;47.536;19.074;2024-01-30T00:57:17;37.00;;;17.03;;
75793;SDS011;64418;47.536;19.074;2024-01-30T00:59:43;38.53;;;18.48;;
75793;SDS011;64418;47.536;19.074;2024-01-30T01:02:09;38.60;;;19.25;;
75793;SDS011;64418;47.536;19.074;2024-01-30T01:04:35;38.23;;;17.40;;
75793;SDS011;64418;47.536;19.074;2024-01-30T01:07:01;40.97;;;17.37;;
75793;SDS011;64418;47.536;19.074;2024-01-30T01:09:29;39.50;;;16.67;;
75793;SDS011;64418;47.536;19.074;2024-01-30T01:11:55;43.20;;;18.08;;
75793;SDS011;64418;47.536;19.074;2024-01-30T01:14:21;38.70;;;17.92;;
75793;SDS011;64418;47.536;19.074;2024-01-30T01:16:47;40.00;;;18.33;;
75793;SDS011;64418;47.536;19.074;2024-01-30T01:19:12;39.97;;;18.37;;
75793;SDS011;64418;47.536;19.074;2024-01-30T01:21:38;43.75;;;17.65;;
75793;SDS011;64418;47.536;19.074;2024-01-30T01:24:04;37.20;;;17.60;;
75793;SDS011;64418;47.536;19.074;2024-01-30T01:26:31;36.88;;;17.15;;
75793;SDS011;64418;47.536;19.074;2024-01-30T01:28:57;40.67;;;17.30;;
75793;SDS011;64418;47.536;19.074;2024-01-30T01:31:23;39.97;;;17.60;;
75793;SDS011;64418;47.536;19.074;2024-01-30T01:33:49;42.23;;;18.47;;
75793;SDS011;64418;47.536;19.074;2024-01-30T01:36:18;42.92;;;17.98;;
75793;SDS011;64418;47.536;19.074;2024-01-30T01:38:44;40.78;;;18.15;;
75793;SDS011;64418;47.536;19.074;2024-01-30T01:41:10;38.42;;;18.62;;
75793;SDS011;64418;47.536;19.074;2024-01-30T01:43:37;41.73;;;17.60;;
75793;SDS011;64418;47.536;19.074;2024-01-30T01:46:03;38.70;;;17.27;;
75793;SDS011;64418;47.536;19.074;2024-01-30T01:48:29;39.63;;;17.55;;
75793;SDS011;64418;47.536;19.074;2024-01-30T01:50:55;40.03;;;17.90;;
75793;SDS011;64418;47.536;19.074;2024-01-30T01:53:22;38.78;;;17.60;;
75793;SDS011;64418;47.536;19.074;2024-01-30T01:55:48;37.07;;;17.70;;
75793;SDS011;64418;47.536;19.074;2024-01-30T01:58:14;37.00;;;17.40;;
75793;SDS011;64418;47.536;19.074;2024-01-30T02:00:42;40.60;;;17.95;;
75793;SDS011;64418;47.536;19.074;2024-01-30T02:03:09;36.97;;;17.12;;
75793;SDS011;64418;47.536;19.074;2024-01-30T02:05:35;41.88;;;18.25;;
75793;SDS011;64418;47.536;19.074;2024-01-30T02:08:03;36.43;;;18.00;;
75793;SDS011;64418;47.536;19.074;2024-01-30T02:10:33;34.38;;;17.42;;
75793;SDS011;64418;47.536;19.074;2024-01-30T02:13:00;37.28;;;16.92;;
75793;SDS011;64418;47.536;19.074;2024-01-30T02:15:28;38.45;;;18.05;;
75793;SDS011;64418;47.536;19.074;2024-01-30T02:17:56;38.53;;;19.00;;
75793;SDS011;64418;47.536;19.074;2024-01-30T02:20:22;39.47;;;18.83;;
75793;SDS011;64418;47.536;19.074;2024-01-30T02:22:51;42.75;;;19.37;;
75793;SDS011;64418;47.536;19.074;2024-01-30T02:25:19;38.95;;;19.00;;
75793;SDS011;64418;47.536;19.074;2024-01-30T02:27:45;42.40;;;17.53;;
75793;SDS011;64418;47.536;19.074;2024-01-30T02:30:12;40.45;;;16.90;;
75793;SDS011;64418;47.536;19.074;2024-01-30T02:32:38;38.72;;;17.67;;
75793;SDS011;64418;47.536;19.074;2024-01-30T02:35:04;37.60;;;18.05;;
75793;SDS011;64418;47.536;19.074;2024-01-30T02:37:30;37.35;;;17.52;;
75793;SDS011;64418;47.536;19.074;2024-01-30T02:39:57;39.07;;;17.90;;
75793;SDS011;64418;47.536;19.074;2024-01-30T02:42:23;39.08;;;17.55;;
75793;SDS011;64418;47.536;19.074;2024-01-30T02:44:49;41.40;;;17.87;;
75793;SDS011;64418;47.536;19.074;2024-01-30T02:47:15;38.93;;;17.43;;
75793;SDS011;64418;47.536;19.074;2024-01-30T02:49:40;39.27;;;18.53;;
75793;SDS011;64418;47.536;19.074;2024-01-30T02:52:06;38.75;;;19.15;;
75793;SDS011;64418;47.536;19.074;2024-01-30T02:54:32;40.13;;;17.87;;
75793;SDS011;64418;47.536;19.074;2024-01-30T02:56:59;39.17;;;17.70;;
75793;SDS011;64418;47.536;19.074;2024-01-30T02:59:25;37.80;;;17.20;;
75793;SDS011;64418;47.536;19.074;2024-01-30T03:01:51;39.90;;;19.20;;
75793;SDS011;64418;47.536;19.074;2024-01-30T03:04:17;40.33;;;18.52;;
75793;SDS011;64418;47.536;19.074;2024-01-30T03:06:46;42.40;;;18.45;;
75793;SDS011;64418;47.536;19.074;2024-01-30T03:09:12;40.47;;;16.97;;
75793;SDS011;64418;47.536;19.074;2024-01-30T03:11:38;53.08;;;19.55;;
75793;SDS011;64418;47.536;19.074;2024-01-30T03:14:05;41.23;;;17.47;;
75793;SDS011;64418;47.536;19.074;2024-01-30T03:16:31;43.38;;;17.45;;
75793;SDS011;64418;47.536;19.074;2024-01-30T03:18:57;39.35;;;18.20;;
75793;SDS011;64418;47.536;19.074;2024-01-30T03:21:23;44.45;;;18.62;;
75793;SDS011;64418;47.536;19.074;2024-01-30T03:23:49;36.50;;;17.40;;
75793;SDS011;64418;47.536;19.074;2024-01-30T03:26:14;42.10;;;16.07;;
75793;SDS011;64418;47.536;19.074;2024-01-30T03:28:40;32.85;;;16.65;;
75793;SDS011;64418;47.536;19.074;2024-01-30T03:31:08;35.23;;;16.93;;
75793;SDS011;64418;47.536;19.074;2024-01-30T03:33:33;33.37;;;14.87;;
75793;SDS011;64418;47.536;19.074;2024-01-30T03:36:02;37.55;;;16.37;;
75793;SDS011;64418;47.536;19.074;2024-01-30T03:38:30;40.85;;;16.15;;
75793;SDS011;64418;47.536;19.074;2024-01-30T03:40:56;40.42;;;16.58;;
75793;SDS011;64418;47.536;19.074;2024-01-30T03:43:22;32.97;;;16.15;;
75793;SDS011;64418;47.536;19.074;2024-01-30T03:45:49;34.83;;;17.23;;
75793;SDS011;64418;47.536;19.074;2024-01-30T03:48:17;42.75;;;17.75;;
75793;SDS011;64418;47.536;19.074;2024-01-30T03:50:44;38.15;;;16.40;;
75793;SDS011;64418;47.536;19.074;2024-01-30T03:53:10;33.63;;;17.05;;
75793;SDS011;64418;47.536;19.074;2024-01-30T03:55:39;39.97;;;17.83;;
75793;SDS011;64418;47.536;19.074;2024-01-30T03:58:05;35.40;;;17.10;;
75793;SDS011;64418;47.536;19.074;2024-01-30T04:00:31;35.63;;;16.27;;
75793;SDS011;64418;47.536;19.074;2024-01-30T04:02:58;37.58;;;17.50;;
75793;SDS011;64418;47.536;19.074;2024-01-30T04:05:27;37.25;;;15.50;;
75793;SDS011;64418;47.536;19.074;2024-01-30T04:07:56;37.03;;;17.37;;
75793;SDS011;64418;47.536;19.074;2024-01-30T04:10:24;41.17;;;17.47;;
75793;SDS011;64418;47.536;19.074;2024-01-30T04:12:53;35.22;;;16.67;;
75793;SDS011;64418;47.536;19.074;2024-01-30T04:15:21;41.35;;;17.58;;
75793;SDS011;64418;47.536;19.074;2024-01-30T04:17:48;36.28;;;16.48;;
75793;SDS011;64418;47.536;19.074;2024-01-30T04:20:24;39.50;;;17.58;;
75793;SDS011;64418;47.536;19.074;2024-01-30T04:23:05;37.07;;;15.83;;
75793;SDS011;64418;47.536;19.074;2024-01-30T04:25:33;38.55;;;16.67;;
75793;SDS011;64418;47.536;19.074;2024-01-30T04:28:01;38.85;;;17.33;;
75793;SDS011;64418;47.536;19.074;2024-01-30T04:30:30;40.17;;;17.27;;
75793;SDS011;64418;47.536;19.074;2024-01-30T04:33:02;36.35;;;17.98;;
75793;SDS011;64418;47.536;19.074;2024-01-30T04:35:35;41.10;;;17.43;;
75793;SDS011;64418;47.536;19.074;2024-01-30T04:38:05;41.60;;;17.50;;
75793;SDS011;64418;47.536;19.074;2024-01-30T04:40:35;40.30;;;17.45;;
75793;SDS011;64418;47.536;19.074;2024-01-30T04:43:07;35.25;;;17.87;;
75793;SDS011;64418;47.536;19.074;2024-01-30T04:45:34;39.00;;;18.77;;
75793;SDS011;64418;47.536;19.074;2024-01-30T04:48:02;39.27;;;17.37;;
75793;SDS011;64418;47.536;19.074;2024-01-30T04:50:29;42.47;;;18.23;;
75793;SDS011;64418;47.536;19.074;2024-01-30T04:53:13;40.83;;;18.60;;
75793;SDS011;64418;47.536;19.074;2024-01-30T04:55:41;41.03;;;17.75;;
75793;SDS011;64418;47.536;19.074;2024-01-30T04:58:09;41.45;;;18.40;;
75793;SDS011;64418;47.536;19.074;2024-01-30T05:00:39;38.57;;;17.73;;
75793;SDS011;64418;47.536;19.074;2024-01-30T05:03:18;36.40;;;18.27;;
75793;SDS011;64418;47.536;19.074;2024-01-30T05:05:47;40.92;;;17.17;;
75793;SDS011;64418;47.536;19.074;2024-01-30T05:08:16;39.40;;;18.45;;
75793;SDS011;64418;47.536;19.074;2024-01-30T05:10:46;41.60;;;18.40;;
75793;SDS011;64418;47.536;19.074;2024-01-30T05:13:13;40.47;;;17.63;;
75793;SDS011;64418;47.536;19.074;2024-01-30T05:15:41;40.25;;;18.95;;
75793;SDS011;64418;47.536;19.074;2024-01-30T05:18:08;40.38;;;17.87;;
75793;SDS011;64418;47.536;19.074;2024-01-30T05:20:35;45.30;;;17.98;;
75793;SDS011;64418;47.536;19.074;2024-01-30T05:23:07;38.47;;;17.77;;
75793;SDS011;64418;47.536;19.074;2024-01-30T05:25:38;37.07;;;16.30;;
75793;SDS011;64418;47.536;19.074;2024-01-30T05:28:06;37.22;;;16.95;;
75793;SDS011;64418;47.536;19.074;2024-01-30T05:30:36;38.42;;;16.60;;
75793;SDS011;64418;47.536;19.074;2024-01-30T05:33:02;40.20;;;16.55;;
75793;SDS011;64418;47.536;19.074;2024-01-30T05:35:29;35.70;;;15.38;;
75793;SDS011;64418;47.536;19.074;2024-01-30T05:37:55;31.60;;;16.07;;
75793;SDS011;64418;47.536;19.074;2024-01-30T05:40:23;35.70;;;15.80;;
75793;SDS011;64418;47.536;19.074;2024-01-30T05:42:53;31.27;;;15.65;;
75793;SDS011;64418;47.536;19.074;2024-01-30T05:45:30;30.77;;;15.45;;
75793;SDS011;64418;47.536;19.074;2024-01-30T05:47:58;37.45;;;15.43;;
75793;SDS011;64418;47.536;19.074;2024-01-30T05:50:26;60.67;;;20.70;;
75793;SDS011;64418;47.536;19.074;2024-01-30T05:52:57;36.17;;;16.05;;
75793;SDS011;64418;47.536;19.074;2024-01-30T05:55:28;33.47;;;16.05;;
75793;SDS011;64418;47.536;19.074;2024-01-30T05:58:03;34.30;;;16.15;;
75793;SDS011;64418;47.536;19.074;2024-01-30T06:00:37;35.10;;;16.30;;
75793;SDS011;64418;47.536;19.074;2024-01-30T06:03:13;33.53;;;15.23;;
75793;SDS011;64418;47.536;19.074;2024-01-30T06:05:43;37.25;;;17.70;;
75793;SDS011;64418;47.536;19.074;2024-01-30T06:08:15;43.30;;;17.37;;
75793;SDS011;64418;47.536;19.074;2024-01-30T06:10:43;33.45;;;15.82;;
75793;SDS011;64418;47.536;19.074;2024-01-30T06:13:19;42.80;;;16.92;;
75793;SDS011;64418;47.536;19.074;2024-01-30T06:44:15;38.55;;;16.50;;
75793;SDS011;64418;47.536;19.074;2024-01-30T06:46:41;41.20;;;17.40;;
75793;SDS011;64418;47.536;19.074;2024-01-30T06:49:07;40.00;;;16.90;;
75793;SDS011;64418;47.536;19.074;2024-01-30T06:51:33;40.30;;;17.03;;
75793;SDS011;64418;47.536;19.074;2024-01-30T06:53:59;31.17;;;15.65;;
75793;SDS011;64418;47.536;19.074;2024-01-30T06:56:25;46.45;;;22.00;;
75793;SDS011;64418;47.536;19.074;2024-01-30T06:58:51;40.12;;;20.30;;
75793;SDS011;64418;47.536;19.074;2024-01-30T07:01:22;36.50;;;16.75;;
75793;SDS011;64418;47.536;19.074;2024-01-30T07:03:54;37.87;;;18.77;;
75793;SDS011;64418;47.536;19.074;2024-01-30T07:06:19;39.03;;;17.48;;
75793;SDS011;64418;47.536;19.074;2024-01-30T07:08:46;35.30;;;16.40;;
75793;SDS011;64418;47.536;19.074;2024-01-30T07:11:17;34.15;;;16.65;;
75793;SDS011;64418;47.536;19.074;2024-01-30T07:13:44;34.38;;;16.20;;
75793;SDS011;64418;47.536;19.074;2024-01-30T07:16:10;37.63;;;18.00;;
75793;SDS011;64418;47.536;19.074;2024-01-30T07:18:38;34.60;;;17.10;;
75793;SDS011;64418;47.536;19.074;2024-01-30T07:21:07;29.42;;;15.20;;
75793;SDS011;64418;47.536;19.074;2024-01-30T07:23:33;40.17;;;16.73;;
75793;SDS011;64418;47.536;19.074;2024-01-30T07:25:59;34.73;;;15.73;;
75793;SDS011;64418;47.536;19.074;2024-01-30T07:28:27;34.80;;;14.57;;
75793;SDS011;64418;47.536;19.074;2024-01-30T07:30:53;36.35;;;17.30;;
75793;SDS011;64418;47.536;19.074;2024-01-30T07:33:19;32.10;;;16.08;;
75793;SDS011;64418;47.536;19.074;2024-01-30T07:35:51;31.13;;;14.10;;
75793;SDS011;64418;47.536;19.074;2024-01-30T07:38:22;41.83;;;15.65;;
75793;SDS011;64418;47.536;19.074;2024-01-30T07:40:48;32.50;;;15.40;;
75793;SDS011;64418;47.536;19.074;2024-01-30T07:43:15;38.33;;;15.90;;
75793;SDS011;64418;47.536;19.074;2024-01-30T07:45:42;36.45;;;15.90;;
75793;SDS011;64418;47.536;19.074;2024-01-30T07:48:08;34.23;;;17.70;;
75793;SDS011;64418;47.536;19.074;2024-01-30T07:50:34;36.00;;;17.80;;
75793;SDS011;64418;47.536;19.074;2024-01-30T07:53:04;46.20;;;18.60;;
75793;SDS011;64418;47.536;19.074;2024-01-30T07:55:31;33.67;;;15.90;;
75793;SDS011;64418;47.536;19.074;2024-01-30T07:58:34;35.55;;;18.62;;
75793;SDS011;64418;47.536;19.074;2024-01-30T08:01:00;32.00;;;16.97;;
75793;SDS011;64418;47.536;19.074;2024-01-30T08:03:26;34.17;;;16.92;;
75793;SDS011;64418;47.536;19.074;2024-01-30T08:05:51;35.80;;;17.33;;
75793;SDS011;64418;47.536;19.074;2024-01-30T08:08:20;39.80;;;17.65;;
75793;SDS011;64418;47.536;19.074;2024-01-30T08:10:49;35.83;;;17.67;;
75793;SDS011;64418;47.536;19.074;2024-01-30T08:13:15;30.10;;;15.32;;
75793;SDS011;64418;47.536;19.074;2024-01-30T08:15:41;28.87;;;16.42;;
75793;SDS011;64418;47.536;19.074;2024-01-30T08:18:07;32.33;;;17.35;;
75793;SDS011;64418;47.536;19.074;2024-01-30T08:20:33;31.77;;;16.40;;
75793;SDS011;64418;47.536;19.074;2024-01-30T08:22:59;28.58;;;15.55;;
75793;SDS011;64418;47.536;19.074;2024-01-30T08:25:27;37.83;;;19.98;;
75793;SDS011;64418;47.536;19.074;2024-01-30T08:27:53;36.20;;;19.12;;
75793;SDS011;64418;47.536;19.074;2024-01-30T08:30:20;39.97;;;17.98;;
75793;SDS011;64418;47.536;19.074;2024-01-30T08:32:46;33.00;;;18.10;;
75793;SDS011;64418;47.536;19.074;2024-01-30T08:35:12;34.15;;;19.27;;
75793;SDS011;64418;47.536;19.074;2024-01-30T08:37:39;28.73;;;16.50;;
75793;SDS011;64418;47.536;19.074;2024-01-30T08:40:06;36.10;;;18.70;;
75793;SDS011;64418;47.536;19.074;2024-01-30T08:42:38;40.47;;;18.93;;
75793;SDS011;64418;47.536;19.074;2024-01-30T08:45:05;49.22;;;19.80;;
75793;SDS011;64418;47.536;19.074;2024-01-30T08:47:32;36.75;;;18.45;;
75793;SDS011;64418;47.536;19.074;2024-01-30T08:49:58;38.25;;;18.23;;
75793;SDS011;64418;47.536;19.074;2024-01-30T08:52:24;33.00;;;18.33;;
75793;SDS011;64418;47.536;19.074;2024-01-30T08:54:50;34.17;;;17.27;;
75793;SDS011;64418;47.536;19.074;2024-01-30T08:57:15;40.22;;;19.30;;
75793;SDS011;64418;47.536;19.074;2024-01-30T08:59:46;38.63;;;18.90;;
75793;SDS011;64418;47.536;19.074;2024-01-30T09:02:13;31.67;;;17.70;;
75793;SDS011;64418;47.536;19.074;2024-01-30T09:04:39;29.70;;;16.52;;
75793;SDS011;64418;47.536;19.074;2024-01-30T09:07:05;34.33;;;16.37;;
75793;SDS011;64418;47.536;19.074;2024-01-30T09:09:31;31.47;;;16.93;;
75793;SDS011;64418;47.536;19.074;2024-01-30T09:11:57;33.15;;;16.30;;
75793;SDS011;64418;47.536;19.074;2024-01-30T09:14:22;32.47;;;17.37;;
75793;SDS011;64418;47.536;19.074;2024-01-30T09:16:53;33.37;;;16.50;;
75793;SDS011;64418;47.536;19.074;2024-01-30T09:19:19;32.55;;;16.25;;
75793;SDS011;64418;47.536;19.074;2024-01-30T09:21:45;31.20;;;16.65;;
75793;SDS011;64418;47.536;19.074;2024-01-30T09:24:11;28.08;;;16.08;;
75793;SDS011;64418;47.536;19.074;2024-01-30T09:26:37;30.90;;;16.00;;
75793;SDS011;64418;47.536;19.074;2024-01-30T09:29:05;29.12;;;15.30;;
75793;SDS011;64418;47.536;19.074;2024-01-30T09:31:34;27.08;;;14.00;;
75793;SDS011;64418;47.536;19.074;2024-01-30T09:34:02;31.58;;;16.23;;
75793;SDS011;64418;47.536;19.074;2024-01-30T09:36:28;28.10;;;15.77;;
75793;SDS011;64418;47.536;19.074;2024-01-30T09:38:54;27.73;;;15.18;;
75793;SDS011;64418;47.536;19.074;2024-01-30T09:41:20;25.08;;;13.60;;
75793;SDS011;64418;47.536;19.074;2024-01-30T09:43:49;28.02;;;17.45;;
75793;SDS011;64418;47.536;19.074;2024-01-30T09:46:17;28.42;;;15.52;;
75793;SDS011;64418;47.536;19.074;2024-01-30T09:48:43;32.20;;;15.87;;
75793;SDS011;64418;47.536;19.074;2024-01-30T09:51:13;29.73;;;14.82;;
75793;SDS011;64418;47.536;19.074;2024-01-30T09:53:41;26.20;;;15.68;;
75793;SDS011;64418;47.536;19.074;2024-01-30T09:56:08;27.40;;;14.80;;
75793;SDS011;64418;47.536;19.074;2024-01-30T09:58:33;30.37;;;16.37;;
75793;SDS011;64418;47.536;19.074;2024-01-30T10:01:02;25.17;;;14.68;;
75793;SDS011;64418;47.536;19.074;2024-01-30T10:03:29;26.20;;;13.88;;
75793;SDS011;64418;47.536;19.074;2024-01-30T10:05:55;25.60;;;13.80;;
75793;SDS011;64418;47.536;19.074;2024-01-30T10:08:23;21.27;;;13.32;;
75793;SDS011;64418;47.536;19.074;2024-01-30T10:10:49;21.60;;;12.93;;
75793;SDS011;64418;47.536;19.074;2024-01-30T10:13:15;23.10;;;13.30;;
75793;SDS011;64418;47.536;19.074;2024-01-30T10:15:42;24.63;;;13.82;;
75793;SDS011;64418;47.536;19.074;2024-01-30T10:18:08;22.67;;;13.02;;
75793;SDS011;64418;47.536;19.074;2024-01-30T10:20:34;23.17;;;14.03;;
75793;SDS011;64418;47.536;19.074;2024-01-30T10:23:00;24.73;;;13.97;;
75793;SDS011;64418;47.536;19.074;2024-01-30T10:25:28;25.02;;;13.98;;
75793;SDS011;64418;47.536;19.074;2024-01-30T10:27:54;21.55;;;11.93;;
75793;SDS011;64418;47.536;19.074;2024-01-30T10:30:20;21.83;;;12.50;;
75793;SDS011;64418;47.536;19.074;2024-01-30T10:32:46;19.47;;;11.83;;
75793;SDS011;64418;47.536;19.074;2024-01-30T10:35:12;21.08;;;12.10;;
75793;SDS011;64418;47.536;19.074;2024-01-30T10:37:39;23.17;;;11.85;;
75793;SDS011;64418;47.536;19.074;2024-01-30T10:40:05;22.08;;;12.60;;
75793;SDS011;64418;47.536;19.074;2024-01-30T10:49:16;22.45;;;10.98;;
75793;SDS011;64418;47.536;19.074;2024-01-30T10:51:43;20.75;;;10.85;;
75793;SDS011;64418;47.536;19.074;2024-01-30T10:54:10;19.90;;;11.20;;
75793;SDS011;64418;47.536;19.074;2024-01-30T10:56:38;17.58;;;10.80;;
75793;SDS011;64418;47.536;19.074;2024-01-30T10:59:05;19.90;;;11.00;;
75793;SDS011;64418;47.536;19.074;2024-01-30T11:01:32;16.80;;;10.02;;
75793;SDS011;64418;47.536;19.074;2024-01-30T11:03:58;18.90;;;11.07;;
75793;SDS011;64418;47.536;19.074;2024-01-30T11:06:27;15.85;;;9.02;;
75793;SDS011;64418;47.536;19.074;2024-01-30T11:09:00;15.73;;;9.68;;
75793;SDS011;64418;47.536;19.074;2024-01-30T11:11:27;15.70;;;10.37;;
75793;SDS011;64418;47.536;19.074;2024-01-30T11:13:53;16.20;;;10.23;;
75793;SDS011;64418;47.536;19.074;2024-01-30T11:16:19;21.23;;;11.80;;
75793;SDS011;64418;47.536;19.074;2024-01-30T11:18:49;20.00;;;11.07;;
75793;SDS011;64418;47.536;19.074;2024-01-30T11:24:18;19.53;;;10.73;;
75793;SDS011;64418;47.536;19.074;2024-01-30T11:26:45;18.40;;;11.57;;
75793;SDS011;64418;47.536;19.074;2024-01-30T11:29:13;18.75;;;12.07;;
75793;SDS011;64418;47.536;19.074;2024-01-30T11:31:40;18.08;;;11.02;;
75793;SDS011;64418;47.536;19.074;2024-01-30T11:34:17;19.00;;;11.90;;
75793;SDS011;64418;47.536;19.074;2024-01-30T11:36:45;17.53;;;10.63;;
75793;SDS011;64418;47.536;19.074;2024-01-30T11:39:23;18.92;;;10.10;;
75793;SDS011;64418;47.536;19.074;2024-01-30T11:41:51;18.12;;;9.88;;
75793;SDS011;64418;47.536;19.074;2024-01-30T11:44:19;19.37;;;10.48;;
75793;SDS011;64418;47.536;19.074;2024-01-30T11:46:45;14.93;;;9.68;;
75793;SDS011;64418;47.536;19.074;2024-01-30T11:49:12;16.33;;;9.57;;
75793;SDS011;64418;47.536;19.074;2024-01-30T11:51:42;14.75;;;9.18;;
75793;SDS011;64418;47.536;19.074;2024-01-30T11:54:08;17.45;;;9.50;;
75793;SDS011;64418;47.536;19.074;2024-01-30T11:56:37;14.02;;;8.75;;
75793;SDS011;64418;47.536;19.074;2024-01-30T11:59:03;17.70;;;9.18;;
75793;SDS011;64418;47.536;19.074;2024-01-30T12:01:29;14.33;;;8.77;;
75793;SDS011;64418;47.536;19.074;2024-01-30T12:03:56;18.15;;;10.10;;
75793;SDS011;64418;47.536;19.074;2024-01-30T12:06:23;15.98;;;9.68;;
75793;SDS011;64418;47.536;19.074;2024-01-30T12:08:56;18.45;;;10.48;;
75793;SDS011;64418;47.536;19.074;2024-01-30T12:11:23;15.20;;;9.52;;
75793;SDS011;64418;47.536;19.074;2024-01-30T12:13:51;14.83;;;9.57;;
75793;SDS011;64418;47.536;19.074;2024-01-30T12:16:18;19.37;;;9.75;;
75793;SDS011;64418;47.536;19.074;2024-01-30T12:18:44;16.62;;;9.27;;
75793;SDS011;64418;47.536;19.074;2024-01-30T12:21:15;16.23;;;9.07;;
75793;SDS011;64418;47.536;19.074;2024-01-30T12:23:42;18.67;;;9.43;;
75793;SDS011;64418;47.536;19.074;2024-01-30T12:26:11;16.40;;;9.57;;
75793;SDS011;64418;47.536;19.074;2024-01-30T12:28:47;14.43;;;9.30;;
75793;SDS011;64418;47.536;19.074;2024-01-30T12:31:16;14.25;;;9.25;;
75793;SDS011;64418;47.536;19.074;2024-01-30T12:33:49;13.40;;;9.27;;
75793;SDS011;64418;47.536;19.074;2024-01-30T12:36:15;12.93;;;8.75;;
75793;SDS011;64418;47.536;19.074;2024-01-30T12:38:42;12.93;;;8.20;;
75793;SDS011;64418;47.536;19.074;2024-01-30T12:41:10;13.57;;;7.62;;
75793;SDS011;64418;47.536;19.074;2024-01-30T12:43:36;11.48;;;7.62;;
75793;SDS011;64418;47.536;19.074;2024-01-30T12:46:02;12.32;;;7.30;;
75793;SDS011;64418;47.536;19.074;2024-01-30T12:48:30;13.47;;;8.30;;
75793;SDS011;64418;47.536;19.074;2024-01-30T12:50:57;14.48;;;7.75;;
75793;SDS011;64418;47.536;19.074;2024-01-30T12:53:23;11.48;;;8.05;;
75793;SDS011;64418;47.536;19.074;2024-01-30T12:55:50;16.40;;;8.18;;
75793;SDS011;64418;47.536;19.074;2024-01-30T12:58:20;13.25;;;7.45;;
75793;SDS011;64418;47.536;19.074;2024-01-30T13:00:46;12.87;;;7.20;;
75793;SDS011;64418;47.536;19.074;2024-01-30T13:03:12;11.98;;;7.32;;
75793;SDS011;64418;47.536;19.074;2024-01-30T13:05:45;13.35;;;7.10;;
75793;SDS011;64418;47.536;19.074;2024-01-30T13:08:10;11.32;;;6.10;;
75793;SDS011;64418;47.536;19.074;2024-01-30T13:10:40;10.05;;;6.10;;
75793;SDS011;64418;47.536;19.074;2024-01-30T13:13:06;13.80;;;7.00;;
75793;SDS011;64418;47.536;19.074;2024-01-30T13:15:32;11.07;;;6.45;;
75793;SDS011;64418;47.536;19.074;2024-01-30T13:18:01;14.00;;;7.03;;
75793;SDS011;64418;47.536;19.074;2024-01-30T13:20:27;10.13;;;6.50;;
75793;SDS011;64418;47.536;19.074;2024-01-30T13:22:55;10.73;;;6.50;;
75793;SDS011;64418;47.536;19.074;2024-01-30T13:25:21;10.95;;;6.03;;
75793;SDS011;64418;47.536;19.074;2024-01-30T13:27:50;9.30;;;6.00;;
75793;SDS011;64418;47.536;19.074;2024-01-30T13:30:16;9.60;;;4.90;;
75793;SDS011;64418;47.536;19.074;2024-01-30T13:32:42;11.10;;;6.50;;
75793;SDS011;64418;47.536;19.074;2024-01-30T13:35:08;9.73;;;5.47;;
75793;SDS011;64418;47.536;19.074;2024-01-30T13:37:34;9.27;;;5.50;;
75793;SDS011;64418;47.536;19.074;2024-01-30T13:40:04;8.40;;;4.40;;
75793;SDS011;64418;47.536;19.074;2024-01-30T13:42:31;7.47;;;3.90;;
75793;SDS011;64418;47.536;19.074;2024-01-30T13:44:58;8.23;;;4.37;;
75793;SDS011;64418;47.536;19.074;2024-01-30T13:47:25;9.30;;;4.27;;
75793;SDS011;64418;47.536;19.074;2024-01-30T13:49:52;7.80;;;3.67;;
75793;SDS011;64418;47.536;19.074;2024-01-30T13:52:19;6.82;;;3.80;;
75793;SDS011;64418;47.536;19.074;2024-01-30T13:54:45;6.32;;;4.05;;
75793;SDS011;64418;47.536;19.074;2024-01-30T13:57:13;7.93;;;4.15;;
75793;SDS011;64418;47.536;19.074;2024-01-30T13:59:39;7.97;;;3.70;;
75793;SDS011;64418;47.536;19.074;2024-01-30T14:02:05;7.80;;;4.10;;
75793;SDS011;64418;47.536;19.074;2024-01-30T14:04:32;6.28;;;4.12;;
75793;SDS011;64418;47.536;19.074;2024-01-30T14:06:58;6.85;;;4.10;;
75793;SDS011;64418;47.536;19.074;2024-01-30T14:09:25;7.93;;;4.37;;
75793;SDS011;64418;47.536;19.074;2024-01-30T14:11:51;7.20;;;3.90;;
75793;SDS011;64418;47.536;19.074;2024-01-30T14:14:19;10.65;;;4.18;;
75793;SDS011;64418;47.536;19.074;2024-01-30T14:16:46;6.60;;;3.55;;
75793;SDS011;64418;47.536;19.074;2024-01-30T14:19:12;11.10;;;4.60;;
75793;SDS011;64418;47.536;19.074;2024-01-30T14:21:38;6.93;;;4.00;;
75793;SDS011;64418;47.536;19.074;2024-01-30T14:24:06;8.13;;;4.13;;
75793;SDS011;64418;47.536;19.074;2024-01-30T14:26:32;10.90;;;4.30;;
75793;SDS011;64418;47.536;19.074;2024-01-30T14:28:59;10.73;;;4.28;;
75793;SDS011;64418;47.536;19.074;2024-01-30T14:31:27;10.27;;;5.05;;
75793;SDS011;64418;47.536;19.074;2024-01-30T14:33:57;7.15;;;4.40;;
75793;SDS011;64418;47.536;19.074;2024-01-30T14:36:25;8.07;;;4.13;;
75793;SDS011;64418;47.536;19.074;2024-01-30T14:38:53;9.20;;;4.20;;
75793;SDS011;64418;47.536;19.074;2024-01-30T14:41:19;9.23;;;4.32;;
75793;SDS011;64418;47.536;19.074;2024-01-30T14:43:45;11.32;;;4.90;;
75793;SDS011;64418;47.536;19.074;2024-01-30T14:46:11;8.00;;;4.62;;
75793;SDS011;64418;47.536;19.074;2024-01-30T14:48:39;8.37;;;5.03;;
75793;SDS011;64418;47.536;19.074;2024-01-30T14:51:05;8.25;;;4.97;;
75793;SDS011;64418;47.536;19.074;2024-01-30T14:53:31;14.07;;;5.15;;